Time,TemperatureF,DewpointF,PressureIn,WindDirection,WindDirectionDegrees,WindSpeedMPH,WindSpeedGustMPH,Humidity,HourlyPrecipIn,Conditions,Clouds,dailyrainin,SoftwareType,DateUTC
2013-01-23 00:02:00,40.0,37.0,29.86,West,269,1.0,5.0,90,0.00,,,0.00,,2013-01-23 08:02:00,
2013-01-23 00:11:00,40.0,37.0,29.86,West,269,1.0,5.0,90,0.00,,,0.00,,2013-01-23 08:11:00,
2013-01-23 00:22:00,40.0,38.0,29.85,SSW,206,2.0,5.0,91,0.00,,,0.00,,2013-01-23 08:22:00,
2013-01-23 00:32:00,40.0,38.0,29.87,South,185,2.0,6.0,92,0.00,,,0.00,,2013-01-23 08:32:00,
2013-01-23 00:42:00,40.0,38.0,29.87,South,185,2.0,6.0,92,0.00,,,0.00,,2013-01-23 08:42:00,
2013-01-23 00:52:00,40.0,38.0,29.86,South,171,3.0,6.0,92,0.00,,,0.00,,2013-01-23 08:52:00,
2013-01-23 01:02:00,40.0,38.0,29.88,North,0,0.0,3.0,92,0.00,,,0.00,,2013-01-23 09:02:00,
2013-01-23 01:12:00,40.0,38.0,29.88,North,0,0.0,3.0,92,0.00,,,0.00,,2013-01-23 09:12:00,
2013-01-23 01:22:00,39.0,37.0,29.88,ESE,116,1.0,4.0,92,0.00,,,0.00,,2013-01-23 09:22:00,
2013-01-23 01:32:00,39.0,37.0,29.88,ESE,116,1.0,4.0,92,0.00,,,0.00,,2013-01-23 09:32:00,
2013-01-23 01:42:00,39.0,37.0,29.88,ESE,116,1.0,4.0,92,0.00,,,0.00,,2013-01-23 09:42:00,
2013-01-23 01:52:00,39.0,35.0,29.83,South,176,2.0,6.0,87,0.00,,,0.00,,2013-01-23 09:52:00,
2013-01-23 02:02:00,39.0,36.0,29.83,ESE,104,1.0,3.0,88,0.00,,,0.00,,2013-01-23 10:02:00,
2013-01-23 02:12:00,39.0,36.0,29.83,ESE,104,1.0,3.0,88,0.00,,,0.00,,2013-01-23 10:12:00,
2013-01-23 02:22:00,39.0,36.0,29.83,ESE,104,1.0,3.0,88,0.00,,,0.00,,2013-01-23 10:22:00,
2013-01-23 02:32:00,40.0,34.0,29.85,East,93,2.0,8.0,79,0.00,,,0.00,,2013-01-23 10:32:00,
2013-01-23 02:42:00,40.0,34.0,29.85,East,93,2.0,8.0,79,0.00,,,0.00,,2013-01-23 10:42:00,
2013-01-23 02:53:00,40.0,33.0,29.88,North,0,0.0,11.0,77,0.00,,,0.00,,2013-01-23 10:53:00,
2013-01-23 03:02:00,41.0,35.0,29.89,SSE,162,1.0,7.0,78,0.00,,,0.00,,2013-01-23 11:02:00,
2013-01-23 03:11:00,41.0,35.0,29.89,SSE,162,1.0,7.0,78,0.00,,,0.00,,2013-01-23 11:11:00,
2013-01-23 03:22:00,41.0,36.0,29.88,SW,236,7.0,11.0,83,0.00,,,0.00,,2013-01-23 11:22:00,
2013-01-23 03:32:00,41.0,36.0,29.88,WNW,287,4.0,8.0,81,0.00,,,0.00,,2013-01-23 11:32:00,
2013-01-23 03:42:00,41.0,36.0,29.88,WNW,287,4.0,8.0,81,0.00,,,0.00,,2013-01-23 11:42:00,
2013-01-23 03:53:00,41.0,36.0,29.86,South,178,2.0,5.0,83,0.00,,,0.00,,2013-01-23 11:53:00,
2013-01-23 04:02:00,41.0,37.0,29.89,SSW,209,3.0,4.0,84,0.00,,,0.00,,2013-01-23 12:02:00,
2013-01-23 04:12:00,41.0,37.0,29.89,SSW,209,3.0,4.0,84,0.00,,,0.00,,2013-01-23 12:12:00,
2013-01-23 04:22:00,41.0,36.0,29.88,South,187,1.0,4.0,83,0.00,,,0.00,,2013-01-23 12:22:00,
2013-01-23 04:32:00,41.0,37.0,29.88,North,0,0.0,3.0,84,0.00,,,0.00,,2013-01-23 12:32:00,
2013-01-23 04:42:00,41.0,37.0,29.88,North,0,0.0,3.0,84,0.00,,,0.00,,2013-01-23 12:42:00,
2013-01-23 04:53:00,41.0,37.0,29.87,ENE,72,2.0,5.0,84,0.00,,,0.00,,2013-01-23 12:53:00,
2013-01-23 05:03:00,41.0,36.0,29.86,East,101,3.0,7.0,82,0.00,,,0.00,,2013-01-23 13:03:00,
2013-01-23 05:12:00,41.0,36.0,29.86,East,101,3.0,7.0,82,0.00,,,0.00,,2013-01-23 13:12:00,
2013-01-23 05:22:00,42.0,35.0,29.86,East,96,1.0,3.0,75,0.00,,,0.00,,2013-01-23 13:22:00,
2013-01-23 05:33:00,42.0,35.0,29.86,East,101,2.0,10.0,75,0.00,,,0.00,,2013-01-23 13:33:00,
2013-01-23 05:42:00,42.0,35.0,29.86,East,101,2.0,10.0,75,0.00,,,0.00,,2013-01-23 13:42:00,
2013-01-23 05:53:00,41.0,35.0,29.85,North,0,0.0,5.0,80,0.00,,,0.00,,2013-01-23 13:53:00,
2013-01-23 06:02:00,41.0,34.0,29.85,East,97,3.0,7.0,77,0.00,,,0.00,,2013-01-23 14:02:00,
2013-01-23 06:11:00,41.0,34.0,29.85,East,97,3.0,7.0,77,0.00,,,0.00,,2013-01-23 14:11:00,
2013-01-23 06:23:00,40.0,34.0,29.84,East,86,1.0,4.0,78,0.00,,,0.00,,2013-01-23 14:23:00,
2013-01-23 06:33:00,41.0,33.0,29.83,ESE,107,1.0,7.0,72,0.00,,,0.00,,2013-01-23 14:33:00,
2013-01-23 06:42:00,41.0,33.0,29.83,ESE,107,1.0,7.0,72,0.00,,,0.00,,2013-01-23 14:42:00,
2013-01-23 06:53:00,41.0,33.0,29.84,ESE,105,2.0,6.0,72,0.00,,,0.00,,2013-01-23 14:53:00,
2013-01-23 07:02:00,41.0,32.0,29.83,ESE,112,2.0,4.0,71,0.00,,,0.00,,2013-01-23 15:02:00,
2013-01-23 07:12:00,41.0,32.0,29.83,ESE,112,2.0,4.0,71,0.00,,,0.00,,2013-01-23 15:12:00,
2013-01-23 07:22:00,41.0,32.0,29.82,ESE,109,3.0,5.0,70,0.00,,,0.00,,2013-01-23 15:22:00,
2013-01-23 07:33:00,41.0,32.0,29.82,ESE,106,2.0,4.0,70,0.00,,,0.00,,2013-01-23 15:33:00,
2013-01-23 07:42:00,41.0,32.0,29.82,ESE,106,2.0,4.0,70,0.00,,,0.00,,2013-01-23 15:42:00,
2013-01-23 07:53:00,41.0,32.0,29.82,North,0,0.0,3.0,71,0.00,,,0.00,,2013-01-23 15:53:00,
2013-01-23 08:02:00,41.0,33.0,29.83,ESE,102,1.0,5.0,72,0.00,,,0.00,,2013-01-23 16:02:00,
2013-01-23 08:11:00,41.0,33.0,29.83,ESE,102,1.0,5.0,72,0.00,,,0.00,,2013-01-23 16:11:00,
2013-01-23 08:22:00,41.0,32.0,29.82,North,0,0.0,5.0,71,0.00,,,0.00,,2013-01-23 16:22:00,
2013-01-23 08:32:00,42.0,31.0,29.82,SSE,167,1.0,7.0,64,0.00,,,0.00,,2013-01-23 16:32:00,
2013-01-23 08:42:00,42.0,31.0,29.82,SSE,167,1.0,7.0,64,0.00,,,0.00,,2013-01-23 16:42:00,
2013-01-23 08:52:00,42.0,30.0,29.81,North,0,0.0,5.0,61,0.00,,,0.00,,2013-01-23 16:52:00,
2013-01-23 09:02:00,42.0,30.0,29.81,North,0,0.0,1.0,63,0.00,,,0.00,,2013-01-23 17:02:00,
2013-01-23 09:11:00,42.0,30.0,29.81,North,0,0.0,1.0,63,0.00,,,0.00,,2013-01-23 17:11:00,
2013-01-23 09:22:00,43.0,30.0,29.81,SSE,163,1.0,2.0,60,0.00,,,0.00,,2013-01-23 17:22:00,
2013-01-23 09:33:00,43.0,31.0,29.82,North,0,0.0,1.0,63,0.00,,,0.00,,2013-01-23 17:33:00,
2013-01-23 09:42:00,43.0,31.0,29.82,North,0,0.0,1.0,63,0.00,,,0.00,,2013-01-23 17:42:00,
2013-01-23 09:53:00,43.0,32.0,29.83,North,0,0.0,3.0,66,0.00,,,0.00,,2013-01-23 17:53:00,
2013-01-23 10:02:00,43.0,35.0,29.83,North,0,0.0,1.0,73,0.00,,,0.00,,2013-01-23 18:02:00,
2013-01-23 10:12:00,43.0,35.0,29.83,North,0,0.0,1.0,73,0.00,,,0.00,,2013-01-23 18:12:00,
2013-01-23 10:22:00,42.0,36.0,29.82,East,97,1.0,3.0,80,0.01,,,0.01,,2013-01-23 18:22:00,
2013-01-23 10:32:00,42.0,36.0,29.82,East,97,1.0,3.0,80,0.01,,,0.01,,2013-01-23 18:32:00,
2013-01-23 10:42:00,41.0,36.0,29.82,North,0,0.0,3.0,83,0.01,,,0.01,,2013-01-23 18:42:00,
2013-01-23 10:53:00,41.0,37.0,29.82,ESE,112,2.0,3.0,84,0.02,,,0.02,,2013-01-23 18:53:00,
2013-01-23 11:02:00,41.0,35.0,29.83,North,0,0.0,4.0,78,0.02,,,0.02,,2013-01-23 19:02:00,
2013-01-23 11:12:00,41.0,35.0,29.83,North,0,0.0,4.0,78,0.02,,,0.02,,2013-01-23 19:12:00,
2013-01-23 11:22:00,42.0,36.0,29.83,North,0,0.0,4.0,78,0.01,,,0.02,,2013-01-23 19:22:00,
2013-01-23 11:32:00,42.0,35.0,29.83,ESE,111,1.0,3.0,75,0.01,,,0.02,,2013-01-23 19:32:00,
2013-01-23 11:42:00,42.0,35.0,29.83,ESE,111,1.0,3.0,75,0.01,,,0.02,,2013-01-23 19:42:00,
2013-01-23 11:53:00,41.0,35.0,29.83,ESE,110,1.0,4.0,78,0.01,,,0.03,,2013-01-23 19:53:00,
2013-01-23 12:02:00,41.0,35.0,29.82,ESE,105,1.0,4.0,80,0.01,,,0.03,,2013-01-23 20:02:00,
2013-01-23 12:12:00,41.0,35.0,29.82,ESE,105,1.0,4.0,80,0.01,,,0.03,,2013-01-23 20:12:00,
2013-01-23 12:22:00,41.0,36.0,29.81,North,0,0.0,2.0,81,0.02,,,0.04,,2013-01-23 20:22:00,
2013-01-23 12:32:00,41.0,36.0,29.80,North,0,0.0,1.0,82,0.02,,,0.05,,2013-01-23 20:32:00,
2013-01-23 12:42:00,41.0,36.0,29.80,North,0,0.0,1.0,82,0.02,,,0.05,,2013-01-23 20:42:00,
2013-01-23 12:53:00,41.0,36.0,29.80,North,0,0.0,1.0,82,0.02,,,0.05,,2013-01-23 20:53:00,
2013-01-23 13:02:00,41.0,37.0,29.80,South,177,3.0,6.0,84,0.02,,,0.06,,2013-01-23 21:02:00,
2013-01-23 13:12:00,41.0,37.0,29.80,South,177,3.0,6.0,84,0.02,,,0.06,,2013-01-23 21:12:00,
2013-01-23 13:22:00,41.0,37.0,29.79,South,169,1.0,6.0,84,0.03,,,0.07,,2013-01-23 21:22:00,
2013-01-23 13:33:00,41.0,37.0,29.78,North,0,0.0,4.0,87,0.03,,,0.07,,2013-01-23 21:33:00,
2013-01-23 13:42:00,41.0,37.0,29.78,North,0,0.0,4.0,87,0.03,,,0.07,,2013-01-23 21:42:00,
2013-01-23 13:52:00,41.0,38.0,29.78,North,0,0.0,3.0,89,0.03,,,0.08,,2013-01-23 21:52:00,
2013-01-23 14:02:00,40.0,37.0,29.78,North,0,0.0,4.0,89,0.02,,,0.08,,2013-01-23 22:02:00,
2013-01-23 14:12:00,40.0,37.0,29.78,North,0,0.0,4.0,89,0.02,,,0.08,,2013-01-23 22:12:00,
2013-01-23 14:22:00,41.0,38.0,29.79,North,0,0.0,2.0,90,0.02,,,0.09,,2013-01-23 22:22:00,
2013-01-23 14:32:00,41.0,39.0,29.79,SW,215,3.0,6.0,91,0.03,,,0.10,,2013-01-23 22:32:00,
2013-01-23 14:42:00,41.0,39.0,29.79,SW,215,3.0,6.0,91,0.03,,,0.10,,2013-01-23 22:42:00,
2013-01-23 14:53:00,41.0,39.0,29.80,South,182,3.0,6.0,92,0.04,,,0.12,,2013-01-23 22:53:00,
2013-01-23 15:02:00,41.0,39.0,29.81,South,172,2.0,6.0,92,0.05,,,0.13,,2013-01-23 23:02:00,
2013-01-23 15:12:00,41.0,39.0,29.81,South,172,2.0,6.0,92,0.05,,,0.13,,2013-01-23 23:12:00,
2013-01-23 15:22:00,41.0,39.0,29.81,SSE,167,1.0,8.0,93,0.07,,,0.16,,2013-01-23 23:22:00,
2013-01-23 15:32:00,41.0,39.0,29.82,South,179,3.0,7.0,94,0.07,,,0.17,,2013-01-23 23:32:00,
2013-01-23 15:42:00,41.0,39.0,29.82,South,179,3.0,7.0,94,0.07,,,0.17,,2013-01-23 23:42:00,
2013-01-23 15:53:00,41.0,39.0,29.83,South,170,2.0,7.0,94,0.07,,,0.18,,2013-01-23 23:53:00,
2013-01-23 16:02:00,41.0,40.0,29.84,SSE,168,1.0,5.0,95,0.05,,,0.19,,2013-01-24 00:02:00,
2013-01-23 16:11:00,41.0,40.0,29.84,SSE,168,1.0,5.0,95,0.05,,,0.19,,2013-01-24 00:11:00,
2013-01-23 16:22:00,41.0,40.0,29.84,SSW,201,3.0,7.0,95,0.03,,,0.19,,2013-01-24 00:22:00,
2013-01-23 16:32:00,41.0,40.0,29.84,SE,145,2.0,7.0,95,0.04,,,0.21,,2013-01-24 00:32:00,
2013-01-23 16:42:00,41.0,40.0,29.84,SE,145,2.0,7.0,95,0.04,,,0.21,,2013-01-24 00:42:00,
2013-01-23 16:53:00,41.0,40.0,29.84,South,175,8.0,13.0,95,0.04,,,0.22,,2013-01-24 00:53:00,
2013-01-23 17:02:00,41.0,40.0,29.85,SSE,166,4.0,11.0,95,0.03,,,0.22,,2013-01-24 01:02:00,
2013-01-23 17:12:00,41.0,40.0,29.85,SSE,166,4.0,11.0,95,0.03,,,0.22,,2013-01-24 01:12:00,
2013-01-23 17:22:00,41.0,39.0,29.86,South,180,5.0,10.0,94,0.04,,,0.23,,2013-01-24 01:22:00,
2013-01-23 17:32:00,41.0,39.0,29.86,South,170,5.0,12.0,94,0.02,,,0.23,,2013-01-24 01:32:00,
2013-01-23 17:42:00,41.0,39.0,29.86,South,170,5.0,12.0,94,0.02,,,0.23,,2013-01-24 01:42:00,
2013-01-23 17:52:00,41.0,40.0,29.88,South,182,6.0,13.0,95,0.01,,,0.23,,2013-01-24 01:52:00,
2013-01-23 18:02:00,41.0,39.0,29.88,South,183,6.0,10.0,94,0.01,,,0.23,,2013-01-24 02:02:00,
2013-01-23 18:11:00,41.0,39.0,29.88,South,183,6.0,10.0,94,0.01,,,0.23,,2013-01-24 02:11:00,
2013-01-23 18:22:00,41.0,39.0,29.89,SSW,200,6.0,15.0,94,0.00,,,0.23,,2013-01-24 02:22:00,
2013-01-23 18:32:00,41.0,39.0,29.89,SSW,207,1.0,10.0,94,0.00,,,0.23,,2013-01-24 02:32:00,
2013-01-23 18:42:00,41.0,39.0,29.89,SSW,207,1.0,10.0,94,0.00,,,0.23,,2013-01-24 02:42:00,
2013-01-23 18:52:00,41.0,39.0,29.89,SSW,207,1.0,10.0,94,0.00,,,0.23,,2013-01-24 02:52:00,
2013-01-23 19:02:00,41.0,40.0,29.90,SSW,194,3.0,7.0,95,0.01,,,0.24,,2013-01-24 03:02:00,
2013-01-23 19:11:00,41.0,40.0,29.90,SSW,194,3.0,7.0,95,0.01,,,0.24,,2013-01-24 03:11:00,
2013-01-23 19:22:00,41.0,40.0,29.91,South,172,2.0,7.0,95,0.01,,,0.24,,2013-01-24 03:22:00,
2013-01-23 19:32:00,41.0,40.0,29.92,SSW,193,3.0,7.0,95,0.01,,,0.24,,2013-01-24 03:32:00,
2013-01-23 19:42:00,41.0,40.0,29.92,SSW,193,3.0,7.0,95,0.01,,,0.24,,2013-01-24 03:42:00,
2013-01-23 19:52:00,42.0,41.0,29.92,South,181,3.0,10.0,95,0.01,,,0.24,,2013-01-24 03:52:00,
2013-01-23 20:02:00,42.0,41.0,29.93,South,171,4.0,5.0,95,0.00,,,0.24,,2013-01-24 04:02:00,
2013-01-23 20:12:00,42.0,41.0,29.93,South,171,4.0,5.0,95,0.00,,,0.24,,2013-01-24 04:12:00,
2013-01-23 20:22:00,42.0,41.0,29.94,South,184,5.0,10.0,95,0.00,,,0.24,,2013-01-24 04:22:00,
2013-01-23 20:32:00,42.0,41.0,29.95,SSW,208,5.0,10.0,95,0.01,,,0.25,,2013-01-24 04:32:00,
2013-01-23 20:42:00,42.0,41.0,29.95,SSW,208,5.0,10.0,95,0.01,,,0.25,,2013-01-24 04:42:00,
2013-01-23 20:52:00,42.0,41.0,29.96,South,175,3.0,11.0,95,0.01,,,0.25,,2013-01-24 04:52:00,
2013-01-23 21:02:00,42.0,41.0,29.97,South,177,5.0,10.0,95,0.01,,,0.25,,2013-01-24 05:02:00,
2013-01-23 21:12:00,42.0,41.0,29.97,South,177,5.0,10.0,95,0.01,,,0.25,,2013-01-24 05:12:00,
2013-01-23 21:22:00,42.0,41.0,29.98,SSW,201,4.0,7.0,95,0.01,,,0.25,,2013-01-24 05:22:00,
2013-01-23 21:32:00,42.0,41.0,29.99,South,186,4.0,9.0,95,0.00,,,0.25,,2013-01-24 05:32:00,
2013-01-23 21:42:00,42.0,41.0,29.99,South,186,4.0,9.0,95,0.00,,,0.25,,2013-01-24 05:42:00,
2013-01-23 21:53:00,42.0,40.0,30.00,South,189,6.0,12.0,94,0.00,,,0.25,,2013-01-24 05:53:00,
2013-01-23 22:02:00,42.0,40.0,30.01,SSW,195,3.0,9.0,94,0.00,,,0.25,,2013-01-24 06:02:00,
2013-01-23 22:12:00,42.0,40.0,30.01,SSW,195,3.0,9.0,94,0.00,,,0.25,,2013-01-24 06:12:00,
2013-01-23 22:22:00,42.0,40.0,30.01,SSW,206,5.0,12.0,94,0.00,,,0.25,,2013-01-24 06:22:00,
2013-01-23 22:32:00,42.0,40.0,30.02,SW,218,12.0,17.0,93,0.00,,,0.25,,2013-01-24 06:32:00,
2013-01-23 22:42:00,42.0,40.0,30.02,SW,218,12.0,17.0,93,0.00,,,0.25,,2013-01-24 06:42:00,
2013-01-23 22:52:00,42.0,40.0,30.03,SW,215,7.0,14.0,92,0.00,,,0.25,,2013-01-24 06:52:00,
2013-01-23 23:02:00,42.0,40.0,30.04,SW,219,5.0,11.0,92,0.00,,,0.25,,2013-01-24 07:02:00,
2013-01-23 23:11:00,42.0,40.0,30.04,SW,219,5.0,11.0,92,0.00,,,0.25,,2013-01-24 07:11:00,
2013-01-23 23:22:00,41.0,39.0,30.05,SSW,208,3.0,7.0,93,0.00,,,0.25,,2013-01-24 07:22:00,
2013-01-23 23:32:00,42.0,40.0,30.05,SW,219,1.0,7.0,93,0.00,,,0.25,,2013-01-24 07:32:00,
2013-01-23 23:42:00,42.0,40.0,30.05,SW,219,1.0,7.0,93,0.00,,,0.25,,2013-01-24 07:42:00,
2013-01-23 23:52:00,42.0,40.0,30.06,SW,221,5.0,9.0,93,0.00,,,0.25,,2013-01-24 07:52:00,